createdAt,value
2018-01-05T00:01:48.518Z,71.00
2018-01-05T00:04:16.767Z,72.10
2018-01-05T00:06:44.257Z,72.00
2018-01-05T00:09:12.514Z,72.40
2018-01-05T00:11:40.026Z,72.20
2018-01-05T00:14:07.702Z,72.90
2018-01-05T00:16:35.176Z,72.80
2018-01-05T00:19:02.638Z,73.10
2018-01-05T00:21:30.117Z,73.30
2018-01-05T00:23:58.347Z,74.00
2018-01-05T00:26:25.983Z,74.00
2018-01-05T00:28:53.478Z,74.30
2018-01-05T00:31:20.950Z,74.80
2018-01-05T00:33:48.423Z,75.00
2018-01-05T00:36:16.682Z,75.60
2018-01-05T00:38:44.927Z,75.60
2018-01-05T00:41:12.414Z,75.60
2018-01-05T00:43:40.672Z,76.00
2018-01-05T00:46:08.926Z,76.20
2018-01-05T00:48:36.432Z,76.20
2018-01-05T00:51:03.931Z,76.10
2018-01-05T00:53:31.422Z,76.00
2018-01-05T00:55:58.889Z,75.80
2018-01-05T00:58:27.134Z,75.50
2018-01-05T01:00:54.631Z,75.50
2018-01-05T01:03:22.198Z,75.40
2018-01-05T01:05:49.704Z,75.30
2018-01-05T01:08:17.224Z,74.90
2018-01-05T01:10:44.779Z,75.10
2018-01-05T01:13:12.242Z,74.80
2018-01-05T01:15:39.730Z,74.70
2018-01-05T01:18:07.225Z,74.80
2018-01-05T01:20:35.802Z,74.20
2018-01-05T01:23:04.052Z,74.00
2018-01-05T01:25:32.258Z,74.00
2018-01-05T01:28:00.513Z,74.00
2018-01-05T01:30:28.755Z,73.80
2018-01-05T01:32:56.246Z,73.80
2018-01-05T01:35:24.518Z,73.10
2018-01-05T01:37:52.774Z,73.20
2018-01-05T01:40:21.745Z,72.90
2018-01-05T01:42:49.238Z,72.90
2018-01-05T01:45:17.484Z,73.20
2018-01-05T01:47:44.987Z,73.00
2018-01-05T01:50:13.206Z,72.70
2018-01-05T01:52:40.697Z,72.70
2018-01-05T01:55:08.159Z,73.40
2018-01-05T01:57:36.409Z,72.70
2018-01-05T02:00:03.983Z,72.70
2018-01-05T02:02:31.466Z,72.60
2018-01-05T02:04:58.939Z,72.80
2018-01-05T02:07:26.454Z,72.50
2018-01-05T02:09:53.931Z,72.40
2018-01-05T02:12:21.410Z,72.70
2018-01-05T02:14:48.883Z,72.30
2018-01-05T02:17:16.351Z,72.40
2018-01-05T02:19:43.846Z,72.60
2018-01-05T02:22:12.081Z,72.60
2018-01-05T02:24:39.580Z,72.60
2018-01-05T02:27:07.818Z,72.70
2018-01-05T02:29:35.277Z,72.70
2018-01-05T02:32:02.778Z,72.80
2018-01-05T02:34:30.268Z,73.00
2018-01-05T02:36:57.772Z,73.00
2018-01-05T02:39:26.033Z,73.20
2018-01-05T02:41:53.527Z,73.20
2018-01-05T02:44:21.014Z,73.10
2018-01-05T02:46:48.550Z,73.10
2018-01-05T02:49:16.026Z,73.20
2018-01-05T02:51:43.520Z,73.10
2018-01-05T02:54:11.790Z,73.20
2018-01-05T02:56:39.275Z,73.20
2018-01-05T02:59:06.740Z,72.90
2018-01-05T03:01:34.212Z,72.90
2018-01-05T03:04:01.723Z,73.00
2018-01-05T03:06:29.959Z,73.10
2018-01-05T03:08:57.459Z,73.10
2018-01-05T03:11:25.694Z,73.00
2018-01-05T03:13:53.203Z,73.00
2018-01-05T03:16:20.666Z,72.90
2018-01-05T03:18:48.174Z,72.90
2018-01-05T03:21:16.426Z,72.50
2018-01-05T03:23:43.922Z,72.50
2018-01-05T03:26:12.441Z,72.40
2018-01-05T03:28:39.928Z,72.90
2018-01-05T03:31:07.419Z,73.10
2018-01-05T03:33:35.646Z,73.20
2018-01-05T03:36:03.155Z,73.20
2018-01-05T03:38:31.395Z,73.30
2018-01-05T03:40:59.677Z,73.20
2018-01-05T03:43:27.130Z,73.20
2018-01-05T03:45:54.667Z,74.70
2018-01-05T03:48:22.131Z,75.90
2018-01-05T03:50:49.603Z,77.10
2018-01-05T03:53:17.150Z,77.70
2018-01-05T03:55:44.615Z,78.60
2018-01-05T03:58:12.081Z,79.20
2018-01-05T04:00:39.555Z,80.40
2018-01-05T04:03:07.036Z,80.90
2018-01-05T04:05:34.667Z,81.50
2018-01-05T04:08:02.250Z,81.20
2018-01-05T04:10:29.743Z,82.30
2018-01-05T04:12:57.225Z,82.40
2018-01-05T04:15:24.806Z,83.60
2018-01-05T04:17:53.048Z,84.30
2018-01-05T04:20:20.556Z,84.30
2018-01-05T04:22:48.027Z,85.80
2018-01-05T04:25:15.517Z,86.20
2018-01-05T04:27:42.975Z,87.40
2018-01-05T04:30:10.461Z,88.00
2018-01-05T04:32:37.990Z,88.80
2018-01-05T04:35:06.275Z,89.10
2018-01-05T04:37:34.538Z,89.60
2018-01-05T04:40:02.057Z,89.50
2018-01-05T04:42:29.529Z,90.00
2018-01-05T04:44:56.993Z,90.10
2018-01-05T04:47:25.236Z,90.30
2018-01-05T04:49:52.712Z,90.30
2018-01-05T04:52:20.214Z,90.20
2018-01-05T04:54:47.683Z,90.20
2018-01-05T04:57:15.203Z,90.20
2018-01-05T04:59:42.807Z,90.30
2018-01-05T05:02:10.334Z,90.50
2018-01-05T05:04:38.580Z,90.60
2018-01-05T05:07:06.122Z,90.60
2018-01-05T05:09:33.587Z,90.70
2018-01-05T05:12:01.090Z,90.70
2018-01-05T05:14:28.587Z,90.70
2018-01-05T05:16:56.041Z,90.80
2018-01-05T05:19:23.534Z,90.90
2018-01-05T05:21:51.025Z,90.90
2018-01-05T05:24:18.496Z,91.10
2018-01-05T05:26:45.966Z,91.20
2018-01-05T05:29:13.495Z,91.20
2018-01-05T05:31:40.993Z,91.20
2018-01-05T05:34:08.579Z,91.00
2018-01-05T05:36:36.861Z,90.80
2018-01-05T05:39:05.115Z,90.50
2018-01-05T05:41:32.615Z,90.50
2018-01-05T05:44:00.102Z,90.30
2018-01-05T05:46:27.598Z,89.60
2018-01-05T05:48:55.102Z,89.70
2018-01-05T05:51:22.565Z,89.20
2018-01-05T05:53:50.036Z,88.70
2018-01-05T05:56:17.543Z,88.50
2018-01-05T05:58:45.049Z,87.90
2018-01-05T06:01:12.530Z,87.50
2018-01-05T06:03:40.811Z,86.10
2018-01-05T06:06:09.054Z,86.00
2018-01-05T06:08:36.703Z,85.90
2018-01-05T06:11:04.183Z,85.40
2018-01-05T06:13:31.656Z,84.40
2018-01-05T06:15:59.149Z,83.90
2018-01-05T06:18:26.662Z,83.50
2018-01-05T06:20:54.891Z,82.80
2018-01-05T06:23:22.350Z,82.80
2018-01-05T06:25:49.841Z,82.00
2018-01-05T06:28:17.335Z,81.90
2018-01-05T06:30:44.813Z,81.90
2018-01-05T06:33:12.283Z,79.10
2018-01-05T06:35:39.784Z,78.80
2018-01-05T06:38:08.045Z,79.50
2018-01-05T06:40:35.514Z,79.50
2018-01-05T06:43:03.766Z,82.30
2018-01-05T06:45:31.287Z,82.30
2018-01-05T06:47:58.743Z,83.80
2018-01-05T06:50:26.250Z,84.60
2018-01-05T06:52:54.564Z,86.10
2018-01-05T06:55:22.068Z,86.10
2018-01-05T06:57:49.557Z,85.90
2018-01-05T07:00:17.042Z,85.90
2018-01-05T07:02:44.508Z,85.10
2018-01-05T07:05:12.019Z,85.00
2018-01-05T07:07:40.267Z,83.60
2018-01-05T07:10:07.754Z,83.60
2018-01-05T07:12:35.338Z,82.60
2018-01-05T07:15:02.848Z,82.10
2018-01-05T07:17:30.387Z,82.00
2018-01-05T07:19:57.862Z,81.30
2018-01-05T07:22:26.177Z,81.00
2018-01-05T07:24:53.639Z,81.00
2018-01-05T07:27:21.238Z,81.10
2018-01-05T07:29:48.713Z,81.10
2018-01-05T07:32:16.971Z,80.80
2018-01-05T07:34:45.324Z,80.60
2018-01-05T07:37:12.811Z,80.60
2018-01-05T07:39:41.086Z,81.00
2018-01-05T07:42:08.554Z,81.00
2018-01-05T07:44:36.819Z,80.30
2018-01-05T07:47:05.064Z,80.50
2018-01-05T07:49:32.563Z,80.40
2018-01-05T07:52:00.041Z,79.60
2018-01-05T07:54:27.621Z,78.30
2018-01-05T07:56:55.193Z,78.60
2018-01-05T07:59:22.856Z,78.00
2018-01-05T08:01:50.348Z,77.90
2018-01-05T08:04:18.723Z,77.00
2018-01-05T08:06:50.643Z,77.20
2018-01-05T08:09:18.120Z,77.10
2018-01-05T08:11:45.675Z,77.30
2018-01-05T08:14:13.958Z,76.80
2018-01-05T08:16:42.229Z,76.90
2018-01-05T08:19:10.484Z,77.20
2018-01-05T08:21:40.082Z,77.20
2018-01-05T08:24:07.563Z,77.10
2018-01-05T08:26:35.816Z,77.80
2018-01-05T08:29:03.304Z,77.80
2018-01-05T08:31:31.608Z,77.70
2018-01-05T08:33:59.125Z,77.60
2018-01-05T08:36:26.956Z,77.10
2018-01-05T08:38:54.451Z,77.10
2018-01-05T08:41:22.712Z,76.60
2018-01-05T08:43:50.212Z,76.30
2018-01-05T08:46:17.685Z,76.30
2018-01-05T08:48:45.190Z,76.20
2018-01-05T08:51:12.671Z,76.50
2018-01-05T08:53:41.048Z,75.30
2018-01-05T08:56:09.286Z,75.30
2018-01-05T08:58:36.876Z,75.20
2018-01-05T09:01:05.275Z,74.80
2018-01-05T09:03:32.798Z,74.80
2018-01-05T09:06:00.302Z,73.20
2018-01-05T09:08:27.809Z,73.00
2018-01-05T09:10:56.080Z,73.90
2018-01-05T09:13:24.389Z,73.10
2018-01-05T09:15:51.913Z,73.10
2018-01-05T09:18:20.189Z,72.40
2018-01-05T09:20:48.453Z,73.20
2018-01-05T09:23:16.217Z,72.40
2018-01-05T09:25:43.752Z,72.50
2018-01-05T09:28:12.093Z,71.40
2018-01-05T09:30:39.763Z,71.40
2018-01-05T09:33:07.322Z,71.00
2018-01-05T09:35:35.192Z,70.70
2018-01-05T09:38:02.670Z,70.30
2018-01-05T09:40:30.212Z,70.00
2018-01-05T09:42:57.800Z,70.10
2018-01-05T09:45:25.278Z,70.10
2018-01-05T09:47:53.561Z,69.80
2018-01-05T09:50:21.940Z,70.20
2018-01-05T09:52:49.451Z,70.20
2018-01-05T09:55:17.135Z,69.90
2018-01-05T09:57:45.371Z,70.70
2018-01-05T10:00:13.115Z,70.70
2018-01-05T10:02:41.410Z,70.70
2018-01-05T10:05:09.010Z,70.50
2018-01-05T10:07:37.280Z,71.00
2018-01-05T10:10:05.582Z,71.10
2018-01-05T10:12:33.266Z,71.10
2018-01-05T10:15:00.787Z,70.90
2018-01-05T10:17:29.072Z,71.50
2018-01-05T10:19:56.571Z,71.50
2018-01-05T10:22:24.061Z,70.80
2018-01-05T10:24:52.409Z,71.30
2018-01-05T10:27:19.929Z,71.20
2018-01-05T10:29:47.445Z,71.60
2018-01-05T10:32:15.086Z,71.10
2018-01-05T10:34:42.625Z,71.20
2018-01-05T10:37:10.111Z,71.60
2018-01-05T10:39:37.645Z,69.90
2018-01-05T10:42:05.128Z,70.20
2018-01-05T10:44:32.606Z,70.80
2018-01-05T10:47:00.090Z,70.90
2018-01-05T10:49:27.664Z,70.90
2018-01-05T10:51:55.138Z,71.90
2018-01-05T10:54:22.688Z,71.50
2018-01-05T10:56:50.152Z,71.70
2018-01-05T10:59:17.686Z,71.40
2018-01-05T11:01:45.168Z,71.10
2018-01-05T11:04:12.703Z,71.20
2018-01-05T11:06:40.193Z,71.80
2018-01-05T11:09:07.746Z,71.60
2018-01-05T11:11:35.260Z,71.60
2018-01-05T11:14:02.750Z,71.70
2018-01-05T11:16:30.590Z,71.40
2018-01-05T11:18:58.080Z,71.40
2018-01-05T11:21:26.412Z,71.40
2018-01-05T11:23:53.981Z,71.40
2018-01-05T11:26:21.498Z,71.20
2018-01-05T11:28:49.787Z,70.70
2018-01-05T11:31:17.257Z,70.70
2018-01-05T11:33:44.801Z,70.90
2018-01-05T11:36:12.282Z,69.80
2018-01-05T11:38:39.774Z,68.60
2018-01-05T11:41:07.277Z,68.60
2018-01-05T11:43:35.246Z,68.50
2018-01-05T11:46:02.743Z,67.90
2018-01-05T11:48:30.252Z,68.50
2018-01-05T11:50:57.764Z,68.50
2018-01-05T11:53:25.251Z,68.50
2018-01-05T11:55:52.746Z,68.20
2018-01-05T11:58:20.264Z,68.00
2018-01-05T12:00:47.739Z,68.30
2018-01-05T12:03:15.239Z,67.90
2018-01-05T12:05:42.718Z,67.70
2018-01-05T12:08:11.440Z,66.90
2018-01-05T12:10:39.246Z,66.90
2018-01-05T12:13:06.827Z,67.00
2018-01-05T12:15:35.100Z,67.60
2018-01-05T12:18:03.362Z,67.80
2018-01-05T12:20:30.924Z,67.90
2018-01-05T12:22:58.426Z,67.80
2018-01-05T12:25:25.989Z,68.20
2018-01-05T12:27:53.491Z,68.10
2018-01-05T12:30:21.006Z,67.80
2018-01-05T12:32:48.519Z,68.30
2018-01-05T12:35:16.777Z,68.20
2018-01-05T12:37:44.267Z,68.20
2018-01-05T12:40:11.814Z,68.30
2018-01-05T12:42:40.043Z,68.80
2018-01-05T12:45:07.619Z,68.90
2018-01-05T12:47:35.228Z,69.30
2018-01-05T12:50:02.735Z,69.20
2018-01-05T12:52:30.224Z,69.80
2018-01-05T12:54:57.772Z,70.70
2018-01-05T12:57:25.256Z,69.80
2018-01-05T12:59:52.780Z,70.00
2018-01-05T13:02:21.031Z,69.80
2018-01-05T13:04:48.582Z,69.70
2018-01-05T13:07:16.103Z,69.30
2018-01-05T13:09:43.719Z,69.80
2018-01-05T13:12:11.980Z,69.70
2018-01-05T13:14:39.469Z,69.60
2018-01-05T13:17:07.212Z,70.20
2018-01-05T13:19:35.530Z,70.50
2018-01-05T13:22:03.195Z,70.40
2018-01-05T13:24:30.672Z,70.60
2018-01-05T13:26:58.182Z,70.50
2018-01-05T13:29:25.648Z,70.40
2018-01-05T13:31:53.182Z,70.40
2018-01-05T13:34:20.694Z,70.80
2018-01-05T13:36:48.177Z,70.40
2018-01-05T13:39:15.666Z,70.30
2018-01-05T13:41:43.702Z,71.20
2018-01-05T13:44:11.956Z,70.80
2018-01-05T13:46:39.442Z,70.40
2018-01-05T13:49:07.714Z,70.60
2018-01-05T13:51:36.177Z,70.90
2018-01-05T13:54:03.739Z,70.70
2018-01-05T13:56:31.285Z,71.10
2018-01-05T13:58:58.784Z,71.10
2018-01-05T14:01:26.271Z,71.20
2018-01-05T14:03:53.752Z,71.40
2018-01-05T14:06:21.238Z,71.50
2018-01-05T14:08:49.495Z,71.40
2018-01-05T14:11:17.048Z,71.30
2018-01-05T14:13:44.545Z,71.90
2018-01-05T14:16:12.121Z,72.70
2018-01-05T14:18:39.685Z,72.90
2018-01-05T14:21:07.204Z,73.10
2018-01-05T14:23:35.643Z,71.40
2018-01-05T14:26:03.313Z,71.40
2018-01-05T14:28:30.828Z,71.70
2018-01-05T14:30:58.385Z,72.10
2018-01-05T14:33:25.879Z,71.90
2018-01-05T14:35:53.446Z,71.50
2018-01-05T14:38:21.005Z,71.50
2018-01-05T14:40:48.576Z,71.60
2018-01-05T14:43:16.067Z,71.70
2018-01-05T14:45:43.558Z,72.00
2018-01-05T14:48:11.074Z,72.10
2018-01-05T14:50:38.717Z,71.90
2018-01-05T14:53:07.093Z,71.90
2018-01-05T14:55:34.577Z,71.80
2018-01-05T14:58:02.072Z,71.60
2018-01-05T15:00:29.538Z,71.70
2018-01-05T15:02:57.103Z,71.50
2018-01-05T15:05:24.816Z,71.60
2018-01-05T15:07:52.310Z,72.00
2018-01-05T15:10:19.794Z,72.00
2018-01-05T15:12:49.023Z,72.30
2018-01-05T15:15:16.513Z,72.30
2018-01-05T15:17:44.023Z,72.40
2018-01-05T15:20:11.517Z,72.60
2018-01-05T15:22:39.968Z,72.90
2018-01-05T15:25:07.481Z,72.70
2018-01-05T15:27:35.734Z,73.20
2018-01-05T15:30:03.292Z,73.20
2018-01-05T15:32:30.784Z,72.70
2018-01-05T15:34:58.332Z,72.90
2018-01-05T15:37:25.840Z,73.00
2018-01-05T15:39:53.683Z,73.20
2018-01-05T15:42:21.631Z,73.70
2018-01-05T15:44:50.138Z,73.80
2018-01-05T15:47:17.725Z,73.80
2018-01-05T15:49:45.840Z,73.80
2018-01-05T15:52:13.328Z,74.20
2018-01-05T15:54:41.076Z,74.20
2018-01-05T15:57:08.593Z,74.20
2018-01-05T15:59:36.814Z,74.30
2018-01-05T16:02:04.601Z,74.60
2018-01-05T16:04:32.393Z,73.80
2018-01-05T16:06:59.932Z,73.90
2018-01-05T16:09:27.506Z,74.30
2018-01-05T16:11:55.001Z,75.00
2018-01-05T16:14:22.504Z,75.70
2018-01-05T16:16:50.119Z,75.40
2018-01-05T16:19:17.696Z,76.00
2018-01-05T16:21:45.200Z,75.90
2018-01-05T16:24:12.811Z,76.10
2018-01-05T16:26:40.376Z,76.20
2018-01-05T16:29:07.916Z,76.50
2018-01-05T16:31:35.665Z,76.50
2018-01-05T16:34:03.196Z,76.30
2018-01-05T16:36:30.740Z,76.20
2018-01-05T16:38:58.215Z,76.60
2018-01-05T16:41:26.591Z,76.70
2018-01-05T16:43:54.940Z,76.80
2018-01-05T16:46:23.171Z,76.80
2018-01-05T16:48:50.679Z,76.70
2018-01-05T16:51:18.176Z,76.70
2018-01-05T16:53:45.954Z,76.30
2018-01-05T16:56:13.815Z,76.10
2018-01-05T16:58:41.482Z,75.90
2018-01-05T17:01:09.826Z,75.80
2018-01-05T17:03:38.948Z,75.30
2018-01-05T17:06:06.722Z,75.20
2018-01-05T17:08:34.884Z,75.20
2018-01-05T17:11:02.440Z,75.00
2018-01-05T17:13:29.965Z,74.90
2018-01-05T17:15:58.340Z,74.70
2018-01-05T17:18:27.876Z,74.60
2018-01-05T17:20:56.917Z,74.60
2018-01-05T17:23:29.313Z,75.00
2018-01-05T17:26:00.475Z,74.80
2018-01-05T17:28:28.819Z,74.80
2018-01-05T17:31:01.877Z,75.10
2018-01-05T17:33:33.351Z,75.10
2018-01-05T17:36:01.721Z,75.20
2018-01-05T17:38:31.556Z,75.30
2018-01-05T17:40:59.930Z,75.10
2018-01-05T17:43:29.080Z,74.90
2018-01-05T17:45:58.656Z,74.90
2018-01-05T17:48:26.431Z,75.00
2018-01-05T17:50:54.982Z,74.80
2018-01-05T17:53:23.306Z,74.60
2018-01-05T17:55:51.391Z,74.60
2018-01-05T17:58:19.032Z,74.30
2018-01-05T18:00:46.583Z,74.10
2018-01-05T18:03:14.660Z,74.30
2018-01-05T18:05:42.237Z,74.10
2018-01-05T18:08:09.804Z,74.30
2018-01-05T18:10:37.862Z,74.10
2018-01-05T18:13:05.418Z,74.30
2018-01-05T18:15:32.932Z,74.00
2018-01-05T18:18:00.434Z,74.10
2018-01-05T18:20:28.479Z,73.70
2018-01-05T18:22:57.445Z,73.80
2018-01-05T18:25:32.059Z,73.80
2018-01-05T18:28:00.919Z,73.70
2018-01-05T18:30:30.169Z,73.70
2018-01-05T18:32:57.964Z,74.00
2018-01-05T18:35:31.154Z,73.70
2018-01-05T18:37:58.856Z,73.80
2018-01-05T18:40:28.711Z,74.00
2018-01-05T18:42:59.739Z,74.00
2018-01-05T18:45:34.514Z,73.50
2018-01-05T18:48:02.045Z,74.20
2018-01-05T18:50:35.472Z,73.30
2018-01-05T18:53:10.332Z,73.30
2018-01-05T18:55:40.961Z,73.20
2018-01-05T18:58:10.614Z,73.50
2018-01-05T19:00:41.484Z,73.70
2018-01-05T19:03:09.756Z,75.00
2018-01-05T19:05:42.803Z,74.30
2018-01-05T19:08:11.190Z,74.20
2018-01-05T19:10:44.927Z,74.30
2018-01-05T19:13:18.114Z,74.10
2018-01-05T19:15:45.670Z,74.10
2018-01-05T19:18:16.769Z,73.30
2018-01-05T19:20:50.726Z,73.20
2018-01-05T19:23:18.616Z,73.10
2018-01-05T19:25:46.491Z,72.50
2018-01-05T19:28:16.360Z,72.40
2018-01-05T19:33:42.081Z,71.50
2018-01-05T19:36:10.458Z,71.70
2018-01-05T19:38:45.092Z,72.00
2018-01-05T19:41:13.579Z,71.60
2018-01-05T19:43:41.898Z,71.20
2018-01-05T19:46:10.508Z,71.20
2018-01-05T19:48:48.180Z,70.10
2018-01-05T19:51:16.474Z,70.00
2018-01-05T19:53:50.404Z,70.00
2018-01-05T19:56:18.789Z,70.00
2018-01-05T19:58:51.264Z,69.90
2018-01-05T20:01:19.635Z,70.10
2018-01-05T20:03:49.826Z,70.40
2018-01-05T20:06:17.753Z,70.40
2018-01-05T20:08:51.890Z,71.00
2018-01-05T20:11:23.424Z,71.40
2018-01-05T20:16:36.490Z,72.40
2018-01-05T20:19:16.376Z,72.80
2018-01-05T20:21:44.591Z,73.50
2018-01-05T20:24:38.569Z,74.70
2018-01-05T20:30:19.598Z,75.90
2018-01-05T20:32:47.588Z,76.00
2018-01-05T20:35:30.243Z,77.00
2018-01-05T20:38:21.940Z,77.30
2018-01-05T20:40:49.946Z,77.50
2018-01-05T20:43:18.602Z,77.70
2018-01-05T20:45:46.191Z,77.90
2018-01-05T20:48:21.065Z,77.80
2018-01-05T20:50:48.693Z,77.90
2018-01-05T20:53:21.554Z,78.30
2018-01-05T20:55:49.211Z,78.20
2018-01-05T20:58:19.254Z,78.20
2018-01-05T21:00:49.060Z,77.70
2018-01-05T21:03:20.889Z,78.60
2018-01-05T21:05:48.970Z,78.60
2018-01-05T21:08:31.709Z,79.10
2018-01-05T21:11:21.707Z,79.10
2018-01-05T21:13:50.158Z,79.40
2018-01-05T21:16:19.741Z,79.40
2018-01-05T21:18:48.613Z,79.60
2018-01-05T21:24:15.445Z,80.10
2018-01-05T21:26:51.228Z,80.20
2018-01-05T21:29:18.737Z,80.50
2018-01-05T21:31:55.017Z,81.50
2018-01-05T21:34:27.163Z,80.90
2018-01-05T21:37:12.781Z,81.60
2018-01-05T21:42:38.068Z,81.50
2018-01-05T21:45:06.092Z,82.00
2018-01-05T21:47:41.830Z,82.20
2018-01-05T21:50:09.585Z,82.30
2018-01-05T21:52:56.485Z,82.20
2018-01-05T21:55:40.685Z,82.50
2018-01-05T21:58:08.901Z,83.30
2018-01-05T22:00:58.386Z,83.00
2018-01-05T22:03:36.151Z,82.90
2018-01-05T22:06:14.612Z,83.50
2018-01-05T22:08:53.285Z,83.50
2018-01-05T22:14:08.027Z,83.80
2018-01-05T22:16:50.699Z,84.60
2018-01-05T22:19:18.247Z,85.10
2018-01-05T22:24:56.477Z,85.20
2018-01-05T22:27:50.499Z,85.50
2018-01-05T22:30:18.063Z,85.40
2018-01-05T22:32:57.051Z,85.30
2018-01-05T22:38:17.382Z,86.00
2018-01-05T22:40:50.107Z,86.40
2018-01-05T22:43:17.590Z,85.90
2018-01-05T22:46:05.603Z,86.30
2018-01-05T22:48:40.907Z,86.50
2018-01-05T22:51:08.397Z,86.40
2018-01-05T22:53:48.515Z,86.50
2018-01-05T22:56:16.036Z,86.50
2018-01-05T22:58:57.699Z,86.30
2018-01-05T23:04:18.748Z,86.50
2018-01-05T23:15:16.629Z,86.80
2018-01-05T23:18:03.238Z,87.00
2018-01-05T23:26:18.585Z,86.90
2018-01-05T23:28:59.432Z,86.70
2018-01-05T23:37:04.905Z,87.00
2018-01-05T23:39:47.518Z,87.00
2018-01-05T23:42:15.259Z,86.90
2018-01-05T23:44:58.349Z,86.90
2018-01-05T23:47:47.060Z,87.10
2018-01-05T23:50:17.382Z,87.40
2018-01-05T23:53:07.149Z,87.40
